createdAt,value
2023-07-22T00:02:18.954Z,100.00
2023-07-22T00:05:27.299Z,100.00
2023-07-22T00:08:43.315Z,100.00
2023-07-22T00:11:51.307Z,100.00
2023-07-22T00:14:59.843Z,100.00
2023-07-22T00:18:08.346Z,100.00
2023-07-22T00:21:16.858Z,100.00
2023-07-22T00:24:31.319Z,100.00
2023-07-22T00:27:47.322Z,100.00
2023-07-22T00:30:55.981Z,100.00
2023-07-22T00:34:04.383Z,100.00
2023-07-22T00:37:19.310Z,100.00
2023-07-22T00:40:27.331Z,100.00
2023-07-22T00:43:42.322Z,100.00
2023-07-22T00:46:44.982Z,100.00
2023-07-22T00:50:10.342Z,100.00
2023-07-22T00:53:12.288Z,100.00
2023-07-22T00:56:27.528Z,100.00
2023-07-22T01:03:02.401Z,100.00
2023-07-22T01:06:17.330Z,100.00
2023-07-22T01:09:19.213Z,100.00
2023-07-22T01:12:34.325Z,100.00
2023-07-22T01:15:49.336Z,100.00
2023-07-22T01:18:51.471Z,100.00
2023-07-22T01:22:11.331Z,100.00
2023-07-22T01:25:13.431Z,100.00
2023-07-22T01:28:29.353Z,100.00
2023-07-22T01:31:46.336Z,100.00
2023-07-22T01:35:01.324Z,100.00
2023-07-22T01:38:16.333Z,100.00
2023-07-22T01:41:31.335Z,100.00
2023-07-22T01:44:48.336Z,100.00
2023-07-22T01:47:56.350Z,100.00
2023-07-22T01:51:18.338Z,100.00
2023-07-22T01:54:20.297Z,100.00
2023-07-22T01:57:35.366Z,100.00
2023-07-22T02:00:37.204Z,100.00
2023-07-22T02:03:52.415Z,100.00
2023-07-22T02:07:00.931Z,100.00
2023-07-22T02:10:09.366Z,100.00
2023-07-22T02:13:17.883Z,100.00
2023-07-22T02:16:26.624Z,100.00
2023-07-22T02:19:41.345Z,100.00
2023-07-22T02:22:49.885Z,100.00
2023-07-22T02:26:04.377Z,100.00
2023-07-22T02:29:06.256Z,100.00
2023-07-22T02:32:21.373Z,100.00
2023-07-22T02:35:36.324Z,100.00
2023-07-22T02:38:44.345Z,100.00
2023-07-22T02:41:59.332Z,100.00
2023-07-22T02:45:15.349Z,100.00
2023-07-22T02:48:30.329Z,100.00
2023-07-22T02:51:38.927Z,100.00
2023-07-22T02:54:48.339Z,100.00
2023-07-22T02:58:03.350Z,100.00
2023-07-22T03:01:11.919Z,100.00
2023-07-22T03:04:26.382Z,100.00
2023-07-22T03:07:28.309Z,100.00
2023-07-22T03:10:43.351Z,100.00
2023-07-22T03:13:51.342Z,100.00
2023-07-22T03:16:59.855Z,100.00
2023-07-22T03:20:14.336Z,100.00
2023-07-22T03:23:29.361Z,100.00
2023-07-22T03:26:31.230Z,100.00
2023-07-22T03:29:46.417Z,100.00
2023-07-22T03:32:49.417Z,100.00
2023-07-22T03:36:04.377Z,100.00
2023-07-22T03:39:19.344Z,100.00
2023-07-22T03:42:27.366Z,100.00
2023-07-22T03:45:36.100Z,100.00
2023-07-22T03:48:44.381Z,100.00
2023-07-22T03:52:06.348Z,100.00
2023-07-22T03:55:15.080Z,100.00
2023-07-22T03:58:30.345Z,100.00
2023-07-22T04:01:32.316Z,100.00
2023-07-22T04:04:47.362Z,100.00
2023-07-22T04:07:49.222Z,100.00
2023-07-22T04:11:05.394Z,100.00
2023-07-22T04:14:20.405Z,100.00
2023-07-22T04:17:29.565Z,100.00
2023-07-22T04:20:44.374Z,100.00
2023-07-22T04:23:59.359Z,100.00
2023-07-22T04:27:07.939Z,100.00
2023-07-22T04:30:22.384Z,100.00
2023-07-22T04:33:31.082Z,100.00
2023-07-22T04:36:46.382Z,100.00
2023-07-22T04:40:01.413Z,100.00
2023-07-22T04:43:10.365Z,100.00
2023-07-22T04:46:18.995Z,100.00
2023-07-22T04:49:33.366Z,100.00
2023-07-22T04:52:41.384Z,100.00
2023-07-22T04:55:49.966Z,100.00
2023-07-22T04:59:04.381Z,100.00
2023-07-22T05:02:20.401Z,100.00
2023-07-22T05:05:22.339Z,100.00
2023-07-22T05:08:37.396Z,100.00
2023-07-22T05:11:39.222Z,100.00
2023-07-22T05:14:54.391Z,100.00
2023-07-22T05:18:03.070Z,100.00
2023-07-22T05:21:18.401Z,100.00
2023-07-22T05:24:27.153Z,100.00
2023-07-22T05:27:35.398Z,100.00
2023-07-22T05:30:43.956Z,100.00
2023-07-22T05:33:52.386Z,100.00
2023-07-22T05:37:01.001Z,100.00
2023-07-22T05:40:09.404Z,100.00
2023-07-22T05:43:18.031Z,100.00
2023-07-22T05:46:33.412Z,100.00
2023-07-22T05:49:48.631Z,100.00
2023-07-22T05:53:03.405Z,100.00
2023-07-22T05:56:11.380Z,100.00
2023-07-22T05:59:26.433Z,100.00
2023-07-22T06:02:35.441Z,100.00
2023-07-22T06:05:50.438Z,100.00
2023-07-22T06:09:05.459Z,100.00
2023-07-22T06:12:14.406Z,100.00
2023-07-22T06:15:23.234Z,100.00
2023-07-22T06:18:38.409Z,100.00
2023-07-22T06:21:47.159Z,100.00
2023-07-22T06:24:55.488Z,100.00
2023-07-22T06:28:04.216Z,100.00
2023-07-22T06:31:12.455Z,100.00
2023-07-22T06:34:27.404Z,100.00
2023-07-22T06:37:35.486Z,100.00
2023-07-22T06:40:43.905Z,100.00
2023-07-22T06:43:52.406Z,100.00
2023-07-22T06:47:01.036Z,100.00
2023-07-22T06:50:15.448Z,100.00
2023-07-22T06:53:32.400Z,99.37
2023-07-22T06:56:40.411Z,97.69
2023-07-22T06:59:55.512Z,96.33
2023-07-22T07:02:57.399Z,97.52
2023-07-22T07:06:12.410Z,96.26
2023-07-22T07:09:20.966Z,95.74
2023-07-22T07:12:35.466Z,94.67
2023-07-22T07:15:55.562Z,93.30
2023-07-22T07:18:57.603Z,91.71
2023-07-22T07:22:12.383Z,92.34
2023-07-22T07:25:27.445Z,92.07
2023-07-22T07:28:36.080Z,90.90
2023-07-22T07:31:51.429Z,87.90
2023-07-22T07:35:07.359Z,87.60
2023-07-22T07:38:15.406Z,85.66
2023-07-22T07:41:23.988Z,85.37
2023-07-22T07:44:40.418Z,84.94
2023-07-22T07:47:55.440Z,83.91
2023-07-22T07:51:17.414Z,84.01
2023-07-22T07:54:19.385Z,78.38
2023-07-22T07:57:34.423Z,77.42
2023-07-22T08:00:42.975Z,78.67
2023-07-22T08:03:52.470Z,76.22
2023-07-22T08:07:07.423Z,75.66
2023-07-22T08:10:09.536Z,74.79
2023-07-22T08:13:24.406Z,72.76
2023-07-22T08:16:32.469Z,72.77
2023-07-22T08:19:41.029Z,71.34
2023-07-22T08:22:55.527Z,69.51
2023-07-22T08:26:11.480Z,68.25
2023-07-22T08:29:13.371Z,67.45
2023-07-22T08:32:28.459Z,67.83
2023-07-22T08:35:37.422Z,66.55
2023-07-22T08:38:45.469Z,66.77
2023-07-22T08:42:02.463Z,67.68
2023-07-22T08:45:11.653Z,67.27
2023-07-22T08:48:22.447Z,67.01
2023-07-22T08:51:38.766Z,66.06
2023-07-22T08:54:54.488Z,63.35
2023-07-22T08:57:57.350Z,63.39
2023-07-22T09:01:13.523Z,62.89
2023-07-22T09:04:30.419Z,65.27
2023-07-22T09:07:39.447Z,64.98
2023-07-22T09:10:49.162Z,63.54
2023-07-22T09:14:00.439Z,61.69
2023-07-22T09:17:15.452Z,60.64
2023-07-22T09:20:30.476Z,61.30
2023-07-22T09:23:46.472Z,61.48
2023-07-22T09:26:55.488Z,60.97
2023-07-22T09:30:30.446Z,55.25
2023-07-22T09:33:45.459Z,56.36
2023-07-22T09:36:52.222Z,53.94
2023-07-22T09:40:07.474Z,54.83
2023-07-22T09:43:12.954Z,56.24
2023-07-22T09:46:27.940Z,55.41
2023-07-22T09:49:36.454Z,54.31
2023-07-22T09:53:02.847Z,53.32
2023-07-22T09:56:17.464Z,55.53
2023-07-22T09:59:26.486Z,54.27
2023-07-22T10:02:42.548Z,53.79
2023-07-22T10:05:47.521Z,53.84
2023-07-22T10:09:12.485Z,54.25
2023-07-22T10:12:21.479Z,53.58
2023-07-22T10:15:38.500Z,53.86
2023-07-22T10:18:55.478Z,55.36
2023-07-22T10:22:11.526Z,55.00
2023-07-22T10:25:17.106Z,54.63
2023-07-22T10:28:31.503Z,54.23
2023-07-22T10:31:46.563Z,51.26
2023-07-22T10:35:01.462Z,51.29
2023-07-22T10:38:12.221Z,51.38
2023-07-22T10:41:23.499Z,50.61
2023-07-22T10:44:36.710Z,51.47
2023-07-22T10:48:12.491Z,50.84
2023-07-22T10:51:20.784Z,51.97
2023-07-22T10:54:40.519Z,49.87
2023-07-22T10:58:01.512Z,49.80
2023-07-22T11:01:34.685Z,50.74
2023-07-22T11:04:51.232Z,49.88
2023-07-22T11:08:14.768Z,49.37
2023-07-22T11:11:46.004Z,49.23
2023-07-22T11:15:10.505Z,47.70
2023-07-22T11:18:22.068Z,48.25
2023-07-22T11:21:30.513Z,49.32
2023-07-22T11:24:45.545Z,48.68
2023-07-22T11:28:01.603Z,49.62
2023-07-22T11:31:10.511Z,46.97
2023-07-22T11:34:21.717Z,47.91
2023-07-22T11:37:36.509Z,43.66
2023-07-22T11:40:54.555Z,44.43
2023-07-22T11:44:05.132Z,46.88
2023-07-22T11:47:15.519Z,44.84
2023-07-22T11:50:41.521Z,45.52
2023-07-22T11:53:56.019Z,44.74
2023-07-22T11:57:04.551Z,43.66
2023-07-22T12:00:13.443Z,44.92
2023-07-22T12:03:28.542Z,46.04
2023-07-22T12:06:37.527Z,48.29
2023-07-22T12:09:49.941Z,47.86
2023-07-22T12:12:58.526Z,48.26
2023-07-22T12:16:13.562Z,48.20
2023-07-22T12:19:22.537Z,47.33
2023-07-22T12:22:31.096Z,46.61
2023-07-22T12:25:45.508Z,47.78
2023-07-22T12:29:00.558Z,45.07
2023-07-22T12:32:09.513Z,43.17
2023-07-22T12:35:24.542Z,44.58
2023-07-22T12:38:33.676Z,45.97
2023-07-22T12:41:48.546Z,46.17
2023-07-22T12:44:57.593Z,45.06
2023-07-22T12:48:06.447Z,46.25
2023-07-22T12:51:29.182Z,41.89
2023-07-22T12:54:38.136Z,43.99
2023-07-22T12:57:46.530Z,45.98
2023-07-22T13:00:55.241Z,45.24
2023-07-22T13:04:10.533Z,46.98
2023-07-22T13:07:19.580Z,46.71
2023-07-22T13:10:29.285Z,45.83
2023-07-22T13:13:37.619Z,45.82
2023-07-22T13:16:52.586Z,45.81
2023-07-22T13:20:07.538Z,43.63
2023-07-22T13:23:15.561Z,41.75
2023-07-22T13:26:30.536Z,42.53
2023-07-22T13:29:39.172Z,42.57
2023-07-22T13:32:47.672Z,43.22
2023-07-22T13:35:57.749Z,42.03
2023-07-22T13:39:06.561Z,42.88
2023-07-22T13:42:15.115Z,43.58
2023-07-22T13:45:29.529Z,42.68
2023-07-22T13:48:44.553Z,42.07
2023-07-22T13:52:09.553Z,43.75
2023-07-22T13:55:24.569Z,42.88
2023-07-22T13:58:33.168Z,43.97
2023-07-22T14:01:41.582Z,43.39
2023-07-22T14:04:52.130Z,42.71
2023-07-22T14:08:06.598Z,44.03
2023-07-22T14:11:21.550Z,44.65
2023-07-22T14:14:36.575Z,43.23
2023-07-22T14:17:45.168Z,43.55
2023-07-22T14:21:00.584Z,42.34
2023-07-22T14:24:02.444Z,40.74
2023-07-22T14:27:17.617Z,40.07
2023-07-22T14:30:32.559Z,42.26
2023-07-22T14:33:41.595Z,41.63
2023-07-22T14:36:56.561Z,43.21
2023-07-22T14:39:58.593Z,43.41
2023-07-22T14:43:13.576Z,43.17
2023-07-22T14:46:22.169Z,41.06
2023-07-22T14:49:30.589Z,40.06
2023-07-22T14:52:45.898Z,40.50
2023-07-22T14:55:54.580Z,40.45
2023-07-22T14:59:03.219Z,41.01
2023-07-22T15:02:17.578Z,41.61
2023-07-22T15:05:25.583Z,41.24
2023-07-22T15:08:34.307Z,41.16
2023-07-22T15:11:49.598Z,38.38
2023-07-22T15:15:04.604Z,40.18
2023-07-22T15:18:06.577Z,40.89
2023-07-22T15:21:22.986Z,40.70
2023-07-22T15:24:37.653Z,39.64
2023-07-22T15:27:48.759Z,39.96
2023-07-22T15:31:03.765Z,40.15
2023-07-22T15:34:12.622Z,40.69
2023-07-22T15:37:21.182Z,40.77
2023-07-22T15:40:29.600Z,41.22
2023-07-22T15:43:38.230Z,41.02
2023-07-22T15:46:52.658Z,41.00
2023-07-22T15:50:01.228Z,40.74
2023-07-22T15:53:23.609Z,40.83
2023-07-22T15:56:25.709Z,41.21
2023-07-22T15:59:40.687Z,41.18
2023-07-22T16:02:48.664Z,41.53
2023-07-22T16:05:57.251Z,42.07
2023-07-22T16:09:05.596Z,42.37
2023-07-22T16:12:14.159Z,42.92
2023-07-22T16:15:22.598Z,43.03
2023-07-22T16:18:31.507Z,43.11
2023-07-22T16:21:46.618Z,43.54
2023-07-22T16:24:54.612Z,44.24
2023-07-22T16:28:09.601Z,44.33
2023-07-22T16:31:11.593Z,44.56
2023-07-22T16:34:26.622Z,43.85
2023-07-22T16:37:28.560Z,44.51
2023-07-22T16:40:43.647Z,44.54
2023-07-22T16:44:05.653Z,44.72
2023-07-22T16:47:20.651Z,44.16
2023-07-22T16:50:35.685Z,44.27
2023-07-22T16:53:50.696Z,44.84
2023-07-22T16:56:59.622Z,44.71
2023-07-22T17:00:15.626Z,45.25
2023-07-22T17:03:30.797Z,45.10
2023-07-22T17:06:32.736Z,45.38
2023-07-22T17:09:47.657Z,44.14
2023-07-22T17:13:02.626Z,44.71
2023-07-22T17:16:04.883Z,45.71
2023-07-22T17:19:19.701Z,44.75
2023-07-22T17:22:34.642Z,45.39
2023-07-22T17:25:43.294Z,46.19
2023-07-22T17:28:59.644Z,46.40
2023-07-22T17:32:08.677Z,46.67
2023-07-22T17:35:17.707Z,47.79
2023-07-22T17:38:32.626Z,46.61
2023-07-22T17:41:47.653Z,45.63
2023-07-22T17:45:02.663Z,45.70
2023-07-22T17:48:17.817Z,45.69
2023-07-22T17:51:32.662Z,45.63
2023-07-22T17:54:47.669Z,46.07
2023-07-22T17:58:02.893Z,46.12
2023-07-22T18:01:04.907Z,47.71
2023-07-22T18:04:19.655Z,46.91
2023-07-22T18:07:34.707Z,47.02
2023-07-22T18:10:50.182Z,48.49
2023-07-22T18:14:05.701Z,47.37
2023-07-22T18:17:20.676Z,48.04
2023-07-22T18:20:29.727Z,49.02
2023-07-22T18:23:45.695Z,50.38
2023-07-22T18:26:54.677Z,48.30
2023-07-22T18:30:10.675Z,50.92
2023-07-22T18:33:12.889Z,51.21
2023-07-22T18:36:27.662Z,52.44
2023-07-22T18:39:29.856Z,52.04
2023-07-22T18:42:45.660Z,52.04
2023-07-22T18:45:47.960Z,52.53
2023-07-22T18:49:02.672Z,52.27
2023-07-22T18:52:24.683Z,53.27
2023-07-22T18:55:33.453Z,52.88
2023-07-22T18:58:49.684Z,52.87
2023-07-22T19:02:00.099Z,52.87
2023-07-22T19:05:08.660Z,54.21
2023-07-22T19:08:23.749Z,54.16
2023-07-22T19:11:32.712Z,54.43
2023-07-22T19:14:40.696Z,54.41
2023-07-22T19:17:49.280Z,55.79
2023-07-22T19:21:08.689Z,55.63
2023-07-22T19:24:23.710Z,57.18
2023-07-22T19:27:38.793Z,57.68
2023-07-22T19:30:47.683Z,59.06
2023-07-22T19:34:02.717Z,59.61
2023-07-22T19:37:17.692Z,59.52
2023-07-22T19:40:30.393Z,60.18
2023-07-22T19:43:38.677Z,61.59
2023-07-22T19:46:47.222Z,62.19
2023-07-22T19:49:55.682Z,63.33
2023-07-22T19:53:17.708Z,66.03
2023-07-22T19:56:26.498Z,66.11
2023-07-22T19:59:35.741Z,66.37
2023-07-22T20:02:51.785Z,65.99
2023-07-22T20:06:01.711Z,65.80
2023-07-22T20:09:17.706Z,66.89
2023-07-22T20:12:25.704Z,67.92
2023-07-22T20:15:44.763Z,68.10
2023-07-22T20:18:53.729Z,69.08
2023-07-22T20:22:02.518Z,69.93
2023-07-22T20:25:11.716Z,70.41
2023-07-22T20:28:20.475Z,70.41
2023-07-22T20:31:36.772Z,70.28
2023-07-22T20:34:39.054Z,71.05
2023-07-22T20:37:53.703Z,70.76
2023-07-22T20:41:12.717Z,71.68
2023-07-22T20:44:21.715Z,70.62
2023-07-22T20:47:30.697Z,70.22
2023-07-22T20:50:40.714Z,70.55
2023-07-22T20:53:56.224Z,71.65
2023-07-22T20:57:11.743Z,71.13
2023-07-22T21:00:20.473Z,70.81
2023-07-22T21:03:35.776Z,71.88
2023-07-22T21:06:43.725Z,71.71
2023-07-22T21:09:52.292Z,73.11
2023-07-22T21:13:00.715Z,71.92
2023-07-22T21:16:09.372Z,72.67
2023-07-22T21:19:17.710Z,73.11
2023-07-22T21:22:32.722Z,74.08
2023-07-22T21:25:41.254Z,73.79
2023-07-22T21:28:55.718Z,75.23
2023-07-22T21:32:03.747Z,75.60
2023-07-22T21:35:19.756Z,75.90
2023-07-22T21:38:28.742Z,75.42
2023-07-22T21:41:37.232Z,77.29
2023-07-22T21:44:54.760Z,77.74
2023-07-22T21:48:09.754Z,78.92
2023-07-22T21:51:31.731Z,78.96
2023-07-22T21:54:39.799Z,79.59
2023-07-22T21:57:48.279Z,79.07
2023-07-22T22:01:02.786Z,78.99
2023-07-22T22:04:04.823Z,79.27
2023-07-22T22:07:19.706Z,77.55
2023-07-22T22:10:21.627Z,79.70
2023-07-22T22:13:36.729Z,79.89
2023-07-22T22:16:51.781Z,81.82
2023-07-22T22:19:53.719Z,81.49
2023-07-22T22:23:08.760Z,80.90
2023-07-22T22:26:10.688Z,81.28
2023-07-22T22:29:25.755Z,82.21
2023-07-22T22:32:52.870Z,79.54
2023-07-22T22:36:01.305Z,74.03
2023-07-22T22:39:09.733Z,71.49
2023-07-22T22:42:24.747Z,70.07
2023-07-22T22:45:33.732Z,67.74
2023-07-22T22:48:48.733Z,68.57
2023-07-22T22:52:06.102Z,70.33
2023-07-22T22:55:14.754Z,69.97
2023-07-22T22:58:23.310Z,70.49
2023-07-22T23:01:37.772Z,69.75
2023-07-22T23:04:52.782Z,74.91
2023-07-22T23:08:01.264Z,77.31
2023-07-22T23:11:09.730Z,78.40
2023-07-22T23:14:24.754Z,79.80
2023-07-22T23:17:39.872Z,80.33
2023-07-22T23:20:41.842Z,81.15
2023-07-22T23:23:56.761Z,81.83
2023-07-22T23:27:05.682Z,79.53
2023-07-22T23:30:14.740Z,81.46
2023-07-22T23:33:29.767Z,82.14
2023-07-22T23:36:38.328Z,81.77
2023-07-22T23:39:46.772Z,83.08
2023-07-22T23:43:01.763Z,83.75
2023-07-22T23:46:09.816Z,84.23
2023-07-22T23:49:24.775Z,83.66
2023-07-22T23:52:40.020Z,84.99
2023-07-22T23:55:48.770Z,80.77
2023-07-22T23:59:03.797Z,78.73
